createdAt,value
2019-03-19T00:01:15.270Z,4.27
2019-03-19T00:03:43.238Z,4.20
2019-03-19T00:06:10.956Z,4.53
2019-03-19T00:08:43.720Z,5.00
2019-03-19T00:11:11.804Z,5.17
2019-03-19T00:13:39.661Z,4.97
2019-03-19T00:16:07.863Z,5.67
2019-03-19T00:18:35.296Z,5.20
2019-03-19T00:21:02.652Z,4.77
2019-03-19T00:23:30.849Z,6.37
2019-03-19T00:25:58.546Z,7.07
2019-03-19T00:28:26.252Z,6.60
2019-03-19T00:30:53.692Z,6.10
2019-03-19T00:33:21.197Z,6.57
2019-03-19T00:35:49.440Z,6.23
2019-03-19T00:38:17.277Z,6.60
2019-03-19T00:40:46.394Z,2.80
2019-03-19T00:43:13.828Z,4.80
2019-03-19T00:45:41.704Z,6.20
2019-03-19T00:48:09.263Z,4.30
2019-03-19T00:50:37.446Z,5.70
2019-03-19T00:53:05.007Z,3.57
2019-03-19T00:55:40.764Z,4.37
2019-03-19T00:58:02.357Z,4.87
2019-03-19T01:00:29.769Z,6.10
2019-03-19T01:02:57.648Z,5.73
2019-03-19T01:05:25.452Z,5.93
2019-03-19T01:07:52.979Z,6.67
2019-03-19T01:10:20.858Z,5.43
2019-03-19T01:12:48.602Z,6.20
2019-03-19T01:15:16.218Z,5.87
2019-03-19T01:17:44.142Z,7.27
2019-03-19T01:20:11.871Z,4.70
2019-03-19T01:22:39.591Z,5.27
2019-03-19T01:25:08.745Z,3.90
2019-03-19T01:27:39.498Z,4.77
2019-03-19T01:30:08.889Z,4.43
2019-03-19T01:32:36.901Z,5.40
2019-03-19T01:35:05.218Z,4.57
2019-03-19T01:39:58.370Z,6.30
2019-03-19T01:42:25.744Z,5.87
2019-03-19T01:44:52.894Z,6.37
2019-03-19T01:47:20.657Z,7.50
2019-03-19T01:49:48.975Z,6.83
2019-03-19T01:52:16.874Z,7.87
2019-03-19T01:54:44.424Z,9.00
2019-03-19T01:57:11.837Z,9.53
2019-03-19T01:59:39.719Z,8.97
2019-03-19T02:02:07.142Z,7.07
2019-03-19T02:04:35.760Z,8.20
2019-03-19T02:07:04.149Z,7.47
2019-03-19T02:09:31.844Z,7.83
2019-03-19T02:11:59.239Z,8.93
2019-03-19T02:14:27.159Z,9.10
2019-03-19T02:16:54.989Z,7.40
2019-03-19T02:19:22.368Z,8.23
2019-03-19T02:21:49.811Z,7.63
2019-03-19T02:24:17.451Z,8.00
2019-03-19T02:26:44.997Z,8.87
2019-03-19T02:29:12.429Z,9.00
2019-03-19T02:31:40.224Z,8.67
2019-03-19T02:34:07.647Z,9.10
2019-03-19T02:36:35.081Z,9.33
2019-03-19T02:39:04.377Z,9.43
2019-03-19T02:41:32.213Z,9.87
2019-03-19T02:43:59.916Z,9.87
2019-03-19T02:46:28.014Z,9.47
2019-03-19T02:48:55.879Z,8.67
2019-03-19T02:51:24.118Z,14.27
2019-03-19T02:53:51.672Z,9.53
2019-03-19T02:56:31.898Z,8.60
2019-03-19T02:58:49.537Z,9.47
2019-03-19T03:01:17.263Z,9.40
2019-03-19T03:03:45.214Z,9.00
2019-03-19T03:06:13.330Z,7.87
2019-03-19T03:08:40.666Z,8.53
2019-03-19T03:11:08.248Z,7.70
2019-03-19T03:13:36.001Z,8.67
2019-03-19T03:16:03.820Z,8.03
2019-03-19T03:18:31.245Z,7.57
2019-03-19T03:20:59.148Z,8.17
2019-03-19T03:23:26.585Z,8.13
2019-03-19T03:25:54.728Z,7.73
2019-03-19T03:28:22.248Z,8.27
2019-03-19T03:30:50.474Z,8.10
2019-03-19T03:33:18.322Z,8.70
2019-03-19T03:35:46.000Z,7.90
2019-03-19T03:38:14.672Z,8.47
2019-03-19T03:40:42.381Z,8.57
2019-03-19T03:43:10.156Z,8.20
2019-03-19T03:45:37.774Z,8.77
2019-03-19T03:48:06.203Z,7.67
2019-03-19T03:50:34.081Z,8.53
2019-03-19T03:53:02.047Z,8.43
2019-03-19T03:55:31.276Z,8.47
2019-03-19T03:57:59.096Z,8.57
2019-03-19T04:00:27.640Z,8.50
2019-03-19T04:02:55.288Z,7.93
2019-03-19T04:05:23.175Z,9.37
2019-03-19T04:07:51.189Z,9.07
2019-03-19T04:10:18.749Z,8.50
2019-03-19T04:12:46.489Z,8.03
2019-03-19T04:15:14.361Z,8.27
2019-03-19T04:17:41.934Z,9.20
2019-03-19T04:20:10.412Z,9.20
2019-03-19T04:22:38.688Z,9.30
2019-03-19T04:25:06.792Z,10.03
2019-03-19T04:27:35.029Z,9.47
2019-03-19T04:30:03.281Z,10.30
2019-03-19T04:32:31.147Z,9.43
2019-03-19T04:34:59.147Z,9.70
2019-03-19T04:37:27.364Z,9.20
2019-03-19T04:39:54.866Z,8.97
2019-03-19T04:42:22.625Z,9.23
2019-03-19T04:44:51.027Z,9.13
2019-03-19T04:47:19.022Z,9.37
2019-03-19T04:49:47.361Z,8.60
2019-03-19T04:52:14.817Z,8.13
2019-03-19T04:54:42.391Z,8.57
2019-03-19T04:57:09.723Z,8.47
2019-03-19T04:59:37.312Z,8.97
2019-03-19T05:02:10.090Z,9.15
2019-03-19T05:04:37.392Z,9.33
2019-03-19T05:07:05.237Z,9.73
2019-03-19T05:09:33.564Z,10.57
2019-03-19T05:12:01.934Z,11.33
2019-03-19T05:14:29.591Z,8.20
2019-03-19T05:16:57.513Z,9.77
2019-03-19T05:19:25.307Z,10.53
2019-03-19T05:21:53.233Z,10.07
2019-03-19T05:24:20.661Z,10.27
2019-03-19T05:26:48.217Z,10.10
2019-03-19T05:29:16.249Z,9.57
2019-03-19T05:31:44.008Z,9.30
2019-03-19T05:34:11.845Z,9.30
2019-03-19T05:36:40.163Z,8.97
2019-03-19T05:39:08.032Z,9.50
2019-03-19T05:41:35.410Z,7.87
2019-03-19T05:44:03.166Z,9.03
2019-03-19T05:46:30.975Z,7.57
2019-03-19T05:48:59.320Z,8.57
2019-03-19T05:51:27.506Z,9.20
2019-03-19T05:53:55.558Z,9.30
2019-03-19T05:56:23.615Z,7.03
2019-03-19T05:58:51.566Z,9.30
2019-03-19T06:01:19.292Z,9.47
2019-03-19T06:03:46.823Z,12.87
2019-03-19T06:06:14.740Z,7.13
2019-03-19T06:08:42.890Z,9.17
2019-03-19T06:11:10.891Z,9.17
2019-03-19T06:13:38.821Z,10.33
2019-03-19T06:16:06.449Z,10.53
2019-03-19T06:18:35.447Z,10.13
2019-03-19T06:21:03.709Z,10.70
2019-03-19T06:23:31.490Z,10.27
2019-03-19T06:25:59.093Z,10.83
2019-03-19T06:28:26.791Z,9.70
2019-03-19T06:30:55.138Z,10.73
2019-03-19T06:33:23.232Z,10.90
2019-03-19T06:35:51.461Z,10.43
2019-03-19T06:38:19.700Z,10.73
2019-03-19T06:40:47.247Z,11.70
2019-03-19T06:43:16.206Z,12.40
2019-03-19T06:45:43.531Z,11.30
2019-03-19T06:48:11.076Z,11.40
2019-03-19T06:50:45.213Z,12.63
2019-03-19T06:53:07.473Z,13.77
2019-03-19T06:55:35.271Z,14.50
2019-03-19T06:58:10.472Z,14.40
2019-03-19T07:00:32.226Z,15.23
2019-03-19T07:02:59.613Z,17.67
2019-03-19T07:05:27.301Z,19.13
2019-03-19T07:07:54.774Z,21.70
2019-03-19T07:10:22.209Z,23.30
2019-03-19T07:12:49.620Z,26.90
2019-03-19T07:15:17.420Z,30.77
2019-03-19T07:17:45.265Z,32.13
2019-03-19T07:20:14.080Z,30.87
2019-03-19T07:22:42.269Z,27.50
2019-03-19T07:25:09.991Z,27.40
2019-03-19T07:27:37.765Z,30.10
2019-03-19T07:30:08.384Z,30.57
2019-03-19T07:32:36.212Z,34.77
2019-03-19T07:35:04.010Z,37.77
2019-03-19T07:37:32.440Z,37.63
2019-03-19T07:39:59.860Z,38.43
2019-03-19T07:42:27.259Z,28.93
2019-03-19T07:44:55.407Z,24.57
2019-03-19T07:47:23.286Z,28.07
2019-03-19T07:49:51.619Z,31.63
2019-03-19T07:52:18.924Z,25.53
2019-03-19T07:54:47.299Z,26.13
2019-03-19T07:57:15.237Z,27.17
2019-03-19T07:59:42.704Z,26.63
2019-03-19T08:02:10.307Z,21.35
2019-03-19T08:04:38.077Z,17.27
2019-03-19T08:07:05.947Z,21.80
2019-03-19T08:09:34.311Z,17.73
2019-03-19T08:12:01.823Z,19.47
2019-03-19T08:14:29.521Z,16.80
2019-03-19T08:16:57.295Z,20.13
2019-03-19T08:19:25.119Z,13.10
2019-03-19T08:21:52.877Z,11.30
2019-03-19T08:24:20.618Z,11.67
2019-03-19T08:26:49.198Z,11.83
2019-03-19T08:29:16.806Z,11.13
2019-03-19T08:31:44.858Z,10.20
2019-03-19T08:34:12.634Z,8.83
2019-03-19T08:36:40.111Z,8.63
2019-03-19T08:39:07.708Z,7.37
2019-03-19T08:41:34.866Z,8.07
2019-03-19T08:44:02.516Z,8.17
2019-03-19T08:46:30.078Z,8.00
2019-03-19T08:48:57.780Z,7.43
2019-03-19T08:51:25.770Z,7.80
2019-03-19T08:53:53.647Z,8.87
2019-03-19T08:56:21.484Z,7.30
2019-03-19T08:58:49.026Z,7.67
2019-03-19T09:01:16.565Z,8.60
2019-03-19T09:03:44.365Z,7.93
2019-03-19T09:06:11.665Z,7.97
2019-03-19T09:08:39.851Z,7.87
2019-03-19T09:11:08.003Z,8.37
2019-03-19T09:13:36.054Z,7.17
2019-03-19T09:16:04.268Z,7.03
2019-03-19T09:18:32.026Z,7.47
2019-03-19T09:20:59.931Z,7.77
2019-03-19T09:23:28.010Z,6.87
2019-03-19T09:25:56.514Z,7.30
2019-03-19T09:28:24.359Z,5.43
2019-03-19T09:30:52.033Z,5.73
2019-03-19T09:33:19.817Z,4.70
2019-03-19T09:35:47.112Z,5.33
2019-03-19T09:38:14.614Z,5.80
2019-03-19T09:40:42.069Z,4.70
2019-03-19T09:43:09.964Z,5.23
2019-03-19T09:45:38.099Z,4.93
2019-03-19T09:48:06.124Z,5.07
2019-03-19T09:50:33.414Z,5.47
2019-03-19T09:53:01.389Z,5.43
2019-03-19T09:55:28.813Z,5.13
2019-03-19T09:57:56.535Z,4.40
2019-03-19T10:00:24.366Z,4.60
2019-03-19T10:02:52.335Z,3.87
2019-03-19T10:05:19.995Z,4.40
2019-03-19T10:07:47.825Z,3.77
2019-03-19T10:10:15.969Z,3.93
2019-03-19T10:12:43.612Z,3.70
2019-03-19T10:15:12.023Z,3.70
2019-03-19T10:17:39.872Z,3.40
2019-03-19T10:20:10.579Z,3.50
2019-03-19T10:22:38.583Z,3.40
2019-03-19T10:25:07.593Z,3.20
2019-03-19T10:27:35.592Z,3.53
2019-03-19T10:30:06.501Z,2.80
2019-03-19T10:32:33.695Z,2.80
2019-03-19T10:35:01.429Z,2.40
2019-03-19T10:37:29.243Z,2.40
2019-03-19T10:39:57.324Z,2.90
2019-03-19T10:42:25.043Z,2.73
2019-03-19T10:44:52.794Z,3.00
2019-03-19T10:47:20.523Z,3.17
2019-03-19T10:49:48.040Z,2.80
2019-03-19T10:52:15.640Z,2.50
2019-03-19T10:54:43.531Z,2.40
2019-03-19T10:57:11.455Z,2.40
2019-03-19T10:59:48.737Z,2.20
2019-03-19T11:02:08.977Z,2.67
2019-03-19T11:04:38.517Z,2.33
2019-03-19T11:07:06.424Z,3.00
2019-03-19T11:09:34.364Z,2.87
2019-03-19T11:12:02.041Z,3.10
2019-03-19T11:14:29.607Z,2.70
2019-03-19T11:16:57.172Z,2.57
2019-03-19T11:19:25.213Z,2.47
2019-03-19T11:21:53.015Z,3.00
2019-03-19T11:24:20.701Z,3.20
2019-03-19T11:26:48.113Z,2.87
2019-03-19T11:29:15.857Z,2.73
2019-03-19T11:31:43.246Z,2.43
2019-03-19T11:34:11.053Z,2.80
2019-03-19T11:36:38.750Z,2.70
2019-03-19T11:39:08.245Z,2.67
2019-03-19T11:41:36.127Z,2.57
2019-03-19T11:44:04.319Z,2.53
2019-03-19T11:46:32.498Z,2.20
2019-03-19T11:49:00.129Z,2.73
2019-03-19T11:51:28.232Z,3.53
2019-03-19T11:53:55.903Z,2.40
2019-03-19T11:56:23.471Z,2.40
2019-03-19T11:58:51.655Z,2.83
2019-03-19T12:01:19.502Z,2.63
2019-03-19T12:03:47.116Z,2.80
2019-03-19T12:06:15.228Z,2.43
2019-03-19T12:08:42.799Z,2.77
2019-03-19T12:11:09.992Z,2.77
2019-03-19T12:13:38.107Z,2.70
2019-03-19T12:16:06.036Z,2.93
2019-03-19T12:18:35.237Z,2.77
2019-03-19T12:21:02.899Z,2.60
2019-03-19T12:23:30.171Z,2.83
2019-03-19T12:25:58.551Z,2.50
2019-03-19T12:28:25.896Z,2.03
2019-03-19T12:30:54.917Z,3.10
2019-03-19T12:33:28.857Z,2.40
2019-03-19T12:35:57.857Z,2.50
2019-03-19T12:38:25.594Z,2.50
2019-03-19T12:40:53.608Z,2.33
2019-03-19T12:43:20.782Z,2.23
2019-03-19T12:45:49.047Z,1.90
2019-03-19T12:48:16.822Z,2.00
2019-03-19T12:50:44.537Z,2.50
2019-03-19T12:53:12.111Z,2.33
2019-03-19T12:55:39.999Z,2.40
2019-03-19T12:58:07.545Z,1.93
2019-03-19T13:00:35.233Z,2.10
2019-03-19T13:03:03.040Z,2.13
2019-03-19T13:05:30.573Z,2.33
2019-03-19T13:07:58.583Z,2.27
2019-03-19T13:10:27.117Z,2.30
2019-03-19T13:12:55.226Z,2.40
2019-03-19T13:15:22.778Z,2.50
2019-03-19T13:17:50.555Z,2.70
2019-03-19T13:20:18.499Z,2.20
2019-03-19T13:22:46.433Z,2.03
2019-03-19T13:25:15.474Z,1.90
2019-03-19T13:27:44.044Z,2.13
2019-03-19T13:30:18.892Z,2.30
2019-03-19T13:32:46.823Z,2.60
2019-03-19T13:35:14.483Z,1.83
2019-03-19T13:37:42.317Z,2.00
2019-03-19T13:40:12.380Z,2.40
2019-03-19T13:42:40.238Z,2.10
2019-03-19T13:45:08.526Z,2.20
2019-03-19T13:47:36.220Z,1.73
2019-03-19T13:50:05.615Z,2.00
2019-03-19T13:52:33.043Z,2.27
2019-03-19T13:55:01.194Z,2.50
2019-03-19T13:57:29.025Z,2.20
2019-03-19T13:59:56.700Z,2.00
2019-03-19T14:02:24.229Z,2.23
2019-03-19T14:04:52.143Z,2.43
2019-03-19T14:07:19.567Z,2.30
2019-03-19T14:09:47.434Z,1.87
2019-03-19T14:12:14.880Z,1.90
2019-03-19T14:14:42.782Z,2.00
2019-03-19T14:17:10.349Z,2.33
2019-03-19T14:19:37.762Z,2.10
2019-03-19T14:22:05.907Z,1.87
2019-03-19T14:24:33.719Z,1.80
2019-03-19T14:27:01.967Z,2.10
2019-03-19T14:29:29.584Z,1.83
2019-03-19T14:31:57.544Z,1.97
2019-03-19T14:34:25.762Z,1.87
2019-03-19T14:36:53.594Z,2.27
2019-03-19T14:39:22.077Z,1.80
2019-03-19T14:41:50.090Z,2.80
2019-03-19T14:44:17.993Z,2.33
2019-03-19T14:46:45.883Z,2.30
2019-03-19T14:49:14.332Z,1.70
2019-03-19T14:51:42.494Z,1.90
2019-03-19T14:54:10.724Z,2.17
2019-03-19T14:56:38.821Z,1.97
2019-03-19T14:59:06.765Z,2.43
2019-03-19T15:01:34.181Z,2.30
2019-03-19T15:04:01.589Z,1.83
2019-03-19T15:06:29.496Z,2.00
2019-03-19T15:08:57.046Z,1.70
2019-03-19T15:11:24.934Z,1.60
2019-03-19T15:13:55.176Z,2.20
2019-03-19T15:16:22.375Z,2.17
2019-03-19T15:18:49.903Z,2.67
2019-03-19T15:21:17.335Z,2.00
2019-03-19T15:23:45.778Z,1.60
2019-03-19T15:26:13.307Z,1.87
2019-03-19T15:28:41.178Z,2.20
2019-03-19T15:31:09.013Z,1.90
2019-03-19T15:33:37.009Z,2.10
2019-03-19T15:36:05.086Z,2.50
2019-03-19T15:38:33.072Z,2.30
2019-03-19T15:41:01.022Z,2.37
2019-03-19T15:43:28.337Z,2.50
2019-03-19T15:45:55.751Z,2.40
2019-03-19T15:48:23.469Z,2.00
2019-03-19T15:50:50.761Z,2.00
2019-03-19T15:53:19.105Z,2.60
2019-03-19T15:55:46.945Z,2.10
2019-03-19T15:58:15.009Z,2.40
2019-03-19T16:00:43.281Z,2.40
2019-03-19T16:03:11.479Z,1.97
2019-03-19T16:05:39.187Z,2.03
2019-03-19T16:08:07.128Z,2.17
2019-03-19T16:10:34.821Z,2.10
2019-03-19T16:13:02.638Z,2.07
2019-03-19T16:15:30.790Z,1.87
2019-03-19T16:17:58.976Z,2.40
2019-03-19T16:20:27.274Z,2.37
2019-03-19T16:22:55.121Z,2.10
2019-03-19T16:25:23.027Z,2.30
2019-03-19T16:27:51.329Z,2.30
2019-03-19T16:30:19.225Z,2.60
2019-03-19T16:32:47.182Z,2.53
2019-03-19T16:35:15.972Z,2.23
2019-03-19T16:37:43.783Z,2.17
2019-03-19T16:40:16.444Z,2.20
2019-03-19T16:42:44.926Z,2.00
2019-03-19T16:45:12.813Z,1.80
2019-03-19T16:47:40.225Z,2.07
2019-03-19T16:50:09.803Z,1.63
2019-03-19T16:52:37.251Z,1.83
2019-03-19T16:55:05.144Z,2.17
2019-03-19T16:57:32.825Z,2.10
2019-03-19T17:00:00.959Z,2.17
2019-03-19T17:02:29.434Z,2.20
2019-03-19T17:04:57.321Z,2.50
2019-03-19T17:07:25.199Z,1.80
2019-03-19T17:09:52.739Z,2.00
2019-03-19T17:12:20.353Z,1.90
2019-03-19T17:14:48.278Z,2.33
2019-03-19T17:17:16.960Z,2.10
2019-03-19T17:19:44.884Z,2.10
2019-03-19T17:22:12.643Z,2.57
2019-03-19T17:24:40.433Z,2.67
2019-03-19T17:27:08.409Z,2.60
2019-03-19T17:29:43.038Z,4.20
2019-03-19T17:32:13.145Z,4.03
2019-03-19T17:34:39.856Z,3.63
2019-03-19T17:37:07.618Z,4.20
2019-03-19T17:39:38.456Z,3.90
2019-03-19T17:42:06.311Z,3.27
2019-03-19T17:44:34.266Z,3.07
2019-03-19T17:47:01.996Z,3.10
2019-03-19T17:49:34.044Z,3.00
2019-03-19T17:52:04.427Z,3.20
2019-03-19T17:54:36.987Z,2.73
2019-03-19T17:57:05.127Z,2.90
2019-03-19T17:59:32.993Z,3.00
2019-03-19T18:02:01.264Z,3.27
2019-03-19T18:04:29.255Z,2.67
2019-03-19T18:06:57.333Z,2.97
2019-03-19T18:09:25.623Z,2.33
2019-03-19T18:11:53.685Z,2.90
2019-03-19T18:14:21.111Z,2.40
2019-03-19T18:16:48.847Z,2.80
2019-03-19T18:19:16.763Z,3.20
2019-03-19T18:21:44.065Z,2.27
2019-03-19T18:24:12.233Z,3.87
2019-03-19T18:26:41.681Z,2.73
2019-03-19T18:29:10.605Z,3.67
2019-03-19T18:31:39.034Z,4.47
2019-03-19T18:34:10.454Z,3.03
2019-03-19T18:36:36.228Z,3.50
2019-03-19T18:39:07.310Z,2.60
2019-03-19T18:41:34.909Z,2.90
2019-03-19T18:44:02.746Z,3.17
2019-03-19T18:46:31.184Z,3.63
2019-03-19T18:48:59.350Z,3.57
2019-03-19T18:51:27.224Z,3.03
2019-03-19T18:53:54.666Z,4.57
2019-03-19T18:56:22.600Z,5.17
2019-03-19T18:58:50.233Z,3.80
2019-03-19T19:01:17.996Z,3.53
2019-03-19T19:03:45.970Z,3.27
2019-03-19T19:06:13.529Z,3.77
2019-03-19T19:08:40.986Z,5.20
2019-03-19T19:11:08.941Z,5.13
2019-03-19T19:13:36.542Z,5.30
2019-03-19T19:16:04.992Z,4.57
2019-03-19T19:18:32.399Z,3.10
2019-03-19T19:20:59.554Z,3.13
2019-03-19T19:23:27.887Z,2.50
2019-03-19T19:25:55.773Z,2.60
2019-03-19T19:28:24.124Z,2.73
2019-03-19T19:30:51.816Z,2.43
2019-03-19T19:33:19.991Z,3.53
2019-03-19T19:35:47.728Z,4.30
2019-03-19T19:38:17.319Z,3.90
2019-03-19T19:40:47.465Z,4.33
2019-03-19T19:43:15.119Z,3.33
2019-03-19T19:45:43.209Z,4.40
2019-03-19T19:48:11.258Z,4.37
2019-03-19T19:50:39.437Z,4.40
2019-03-19T19:53:06.863Z,4.80
2019-03-19T19:55:35.084Z,6.30
2019-03-19T19:58:03.093Z,4.40
2019-03-19T20:00:30.732Z,5.10
2019-03-19T20:03:11.506Z,4.70
2019-03-19T20:05:31.286Z,5.87
2019-03-19T20:08:09.685Z,5.40
2019-03-19T20:10:37.763Z,7.30
2019-03-19T20:13:05.669Z,7.07
2019-03-19T20:15:33.926Z,7.47
2019-03-19T20:18:02.272Z,6.23
2019-03-19T20:20:29.859Z,6.40
2019-03-19T20:22:58.132Z,5.43
2019-03-19T20:25:26.359Z,5.93
2019-03-19T20:27:55.076Z,5.47
2019-03-19T20:30:22.682Z,4.10
2019-03-19T20:32:50.177Z,4.10
2019-03-19T20:35:18.005Z,5.17
2019-03-19T20:37:45.304Z,4.33
2019-03-19T20:40:13.506Z,5.20
2019-03-19T20:42:41.720Z,6.03
2019-03-19T20:45:10.237Z,6.90
2019-03-19T20:47:37.970Z,5.80
2019-03-19T20:50:12.625Z,5.20
2019-03-19T20:52:44.821Z,5.13
2019-03-19T20:55:12.759Z,7.63
2019-03-19T20:57:40.389Z,7.50
2019-03-19T21:00:12.007Z,8.50
2019-03-19T21:02:39.627Z,8.50
2019-03-19T21:05:07.552Z,7.63
2019-03-19T21:07:35.202Z,8.23
2019-03-19T21:10:04.521Z,8.50
2019-03-19T21:12:36.467Z,8.50
2019-03-19T21:15:05.210Z,8.07
2019-03-19T21:17:32.650Z,8.60
2019-03-19T21:20:00.498Z,9.17
2019-03-19T21:22:29.069Z,8.23
2019-03-19T21:24:57.008Z,8.33
2019-03-19T21:27:24.900Z,8.60
2019-03-19T21:29:53.917Z,8.20
2019-03-19T21:32:21.869Z,7.20
2019-03-19T21:34:49.882Z,8.00
2019-03-19T21:37:17.295Z,7.73
2019-03-19T21:39:45.112Z,8.17
2019-03-19T21:42:12.877Z,7.47
2019-03-19T21:44:40.555Z,7.30
2019-03-19T21:47:10.142Z,7.00
2019-03-19T21:49:37.887Z,8.40
2019-03-19T21:52:05.545Z,7.90
2019-03-19T21:54:33.084Z,5.90
2019-03-19T21:57:00.951Z,7.40
2019-03-19T21:59:29.022Z,8.17
2019-03-19T22:01:59.014Z,7.83
2019-03-19T22:04:26.318Z,7.80
2019-03-19T22:06:56.978Z,7.57
2019-03-19T22:09:24.567Z,7.70
2019-03-19T22:11:52.268Z,8.33
2019-03-19T22:14:20.547Z,8.80
2019-03-19T22:16:48.101Z,8.03
2019-03-19T22:19:15.868Z,8.27
2019-03-19T22:21:43.835Z,8.37
2019-03-19T22:24:11.416Z,7.63
2019-03-19T22:26:38.834Z,8.33
2019-03-19T22:29:06.660Z,7.70
2019-03-19T22:31:35.002Z,8.57
2019-03-19T22:34:14.242Z,7.93
2019-03-19T22:36:41.421Z,8.97
2019-03-19T22:39:08.960Z,9.20
2019-03-19T22:41:37.084Z,9.30
2019-03-19T22:44:05.261Z,9.30
2019-03-19T22:46:33.080Z,8.83
2019-03-19T22:49:02.584Z,9.00
2019-03-19T22:51:30.565Z,8.27
2019-03-19T22:53:58.166Z,10.13
2019-03-19T22:56:28.069Z,9.10
2019-03-19T22:58:56.126Z,8.93
2019-03-19T23:01:27.333Z,8.93
2019-03-19T23:03:55.756Z,8.10
2019-03-19T23:06:23.174Z,8.63
2019-03-19T23:08:50.829Z,8.50
2019-03-19T23:11:18.291Z,9.33
2019-03-19T23:13:47.211Z,7.83
2019-03-19T23:16:15.431Z,8.00
2019-03-19T23:18:42.965Z,9.00
2019-03-19T23:21:11.374Z,8.17
2019-03-19T23:23:39.243Z,8.20
2019-03-19T23:26:06.765Z,9.23
2019-03-19T23:28:34.799Z,8.47
2019-03-19T23:31:03.013Z,7.63
2019-03-19T23:33:30.700Z,8.40
2019-03-19T23:35:58.434Z,8.90
2019-03-19T23:38:25.945Z,7.60
2019-03-19T23:40:55.363Z,7.30
2019-03-19T23:43:23.154Z,7.83
2019-03-19T23:45:50.643Z,7.10
2019-03-19T23:48:19.072Z,7.03
2019-03-19T23:50:46.993Z,7.13
2019-03-19T23:53:14.642Z,8.13
2019-03-19T23:55:42.408Z,7.73
2019-03-19T23:58:12.069Z,7.60
